Etusivu
METAR-TAF:

METAR-TAF

Lentoasemat :

Inukjuak, Quebec, Kanada

Leveyspiiri: 58-28N, Pituuspiiri: 078-05W, korkeus merenpinnasta: 25 m

Tämänhetkinen sää

Tämä raportti tehtiin 39 minuuttia sitten, kello 18.00 UTC
Tuuli 12 kn etelästä/kaakosta
Lämpötila -19°C
Kosteus 77%
Ilmanpaine 1021 hPa
Näkyvyys: 14.5 km
Pilvistä 1600 ft:n korkeudessa

METAR: CYPH 241800Z AUTO 16012KT 9SM OVC016 M19/M22 A3014 RMK SLP213

Aika: 13:39 (18:39 UTC)

Sääennuste

Tämä raportti tehtiin 57 minuuttia sitten, kello 17.42 UTC
Ennuste voimassa 24. päivästä klo 18 UTC - 25. päivään klo 06 UTC
Tuuli 12 kn etelästä/kaakosta puuskistuen 22 kn:hen
Näkyvyys: 10 km
Hajanaisia pilviä 1500 ft:n korkeudessa
Ajoittain
24. päivästä klo 18 UTC - 25. päivään klo 06 UTC
Hajonneita pilviä 1500 ft:n korkeudessa
heikkoja lumikuuroja

TAF: CYPH 241742Z 2418/2506 16012G22KT P6SM SCT015 TEMPO 2418/2506 11/2SM -SHSN BKN015 RMK FCST BASED ON AUTO OBS. NXT FCST BY 250000Z

Säähavainnot ja -ennusteet yli 4000 lentoasemalta (METAR- ja TAF-raportit).

Käytössä olevat sääasemat on merkitty karttaan keltaisilla ja punaisilla pisteillä.

Aseta hiiri pisteen päälle nähdäksesi sääaseman nimen.

Klikkaa sitten nähdäksesi säähavainnot ja -ennusteet.

Kartan vaihtaminen: klikkaa mustalla rastilla varustettuja vihreitä pisteitä, niin voit zoomata sisään; viivalla varustettua vihreää pistettä, niin voit zoomata ulos tai vihreitä nuolia, niin pääset viereisille kartoille.


METAR-TAF: